sensor_id;sensor_type;location;lat;lon;timestamp;pressure;altitude;pressure_sealevel;temperature;humidity
33795;BME280;51430;52.242;21.118;2024-01-30T00:14:23;102110.06;;;0.97;99.92
33795;BME280;51430;52.242;21.118;2024-01-30T02:10:15;102056.89;;;0.50;100.00
33795;BME280;51430;52.242;21.118;2024-01-30T05:05:32;102027.23;;;-0.06;100.00
33795;BME280;51430;52.242;21.118;2024-01-30T05:55:00;102026.20;;;-0.03;100.00
33795;BME280;51430;52.242;21.118;2024-01-30T05:57:50;102022.44;;;-0.04;100.00
33795;BME280;51430;52.242;21.118;2024-01-30T06:00:50;102024.79;;;0.03;100.00
33795;BME280;51430;52.242;21.118;2024-01-30T06:04:15;102022.14;;;-0.14;100.00
33795;BME280;51430;52.242;21.118;2024-01-30T06:07:10;102024.84;;;-0.07;100.00
33795;BME280;51430;52.242;21.118;2024-01-30T07:17:12;102040.06;;;0.73;97.09
33795;BME280;51430;52.242;21.118;2024-01-30T07:40:01;102034.13;;;2.17;90.27
33795;BME280;51430;52.242;21.118;2024-01-30T07:43:23;102038.95;;;2.62;89.02
33795;BME280;51430;52.242;21.118;2024-01-30T07:46:32;102040.32;;;3.02;86.62
33795;BME280;51430;52.242;21.118;2024-01-30T07:49:43;102040.27;;;2.86;86.26
33795;BME280;51430;52.242;21.118;2024-01-30T07:53:03;102042.27;;;2.89;85.44
33795;BME280;51430;52.242;21.118;2024-01-30T07:56:31;102039.27;;;3.40;84.07
33795;BME280;51430;52.242;21.118;2024-01-30T08:06:08;102036.08;;;4.02;80.26
33795;BME280;51430;52.242;21.118;2024-01-30T09:33:18;102019.51;;;10.92;51.39
33795;BME280;51430;52.242;21.118;2024-01-30T09:39:51;102014.30;;;10.61;50.15
33795;BME280;51430;52.242;21.118;2024-01-30T10:07:25;101996.10;;;10.48;49.39
33795;BME280;51430;52.242;21.118;2024-01-30T10:13:56;101993.23;;;11.27;47.74
33795;BME280;51430;52.242;21.118;2024-01-30T10:16:57;101989.92;;;11.31;47.96
33795;BME280;51430;52.242;21.118;2024-01-30T10:22:58;101986.59;;;12.11;46.06
33795;BME280;51430;52.242;21.118;2024-01-30T10:32:47;101978.80;;;13.37;43.55
33795;BME280;51430;52.242;21.118;2024-01-30T10:36:16;101972.28;;;12.82;43.75
33795;BME280;51430;52.242;21.118;2024-01-30T10:39:29;101967.31;;;12.96;44.06
33795;BME280;51430;52.242;21.118;2024-01-30T10:43:40;101963.77;;;12.99;43.38
33795;BME280;51430;52.242;21.118;2024-01-30T10:47:10;101962.77;;;13.49;42.37
33795;BME280;51430;52.242;21.118;2024-01-30T10:50:00;101957.59;;;13.06;42.58
33795;BME280;51430;52.242;21.118;2024-01-30T10:55:34;101956.25;;;13.25;42.21
33795;BME280;51430;52.242;21.118;2024-01-30T10:58:23;101949.59;;;13.13;42.38
33795;BME280;51430;52.242;21.118;2024-01-30T11:01:11;101949.63;;;13.10;42.35
33795;BME280;51430;52.242;21.118;2024-01-30T11:03:41;101943.68;;;13.01;42.79
33795;BME280;51430;52.242;21.118;2024-01-30T11:06:32;101943.64;;;13.66;41.91
33795;BME280;51430;52.242;21.118;2024-01-30T11:09:40;101939.99;;;13.80;41.03
33795;BME280;51430;52.242;21.118;2024-01-30T11:12:23;101936.39;;;13.78;41.34
33795;BME280;51430;52.242;21.118;2024-01-30T11:15:15;101937.31;;;14.37;40.34
33795;BME280;51430;52.242;21.118;2024-01-30T11:20:29;101932.46;;;15.47;38.74
33795;BME280;51430;52.242;21.118;2024-01-30T11:23:07;101935.03;;;16.53;36.63
33795;BME280;51430;52.242;21.118;2024-01-30T11:25:39;101930.26;;;16.14;36.49
33795;BME280;51430;52.242;21.118;2024-01-30T11:28:31;101926.09;;;16.29;36.19
33795;BME280;51430;52.242;21.118;2024-01-30T11:31:06;101924.71;;;16.20;36.15
33795;BME280;51430;52.242;21.118;2024-01-30T11:33:36;101920.83;;;15.41;37.23
33795;BME280;51430;52.242;21.118;2024-01-30T11:36:06;101919.58;;;15.03;37.79
33795;BME280;51430;52.242;21.118;2024-01-30T11:44:59;101910.21;;;15.39;37.81
33795;BME280;51430;52.242;21.118;2024-01-30T11:48:08;101908.88;;;15.99;36.72
33795;BME280;51430;52.242;21.118;2024-01-30T11:50:59;101908.80;;;15.90;36.68
33795;BME280;51430;52.242;21.118;2024-01-30T11:53:28;101902.93;;;15.45;37.09
33795;BME280;51430;52.242;21.118;2024-01-30T11:56:12;101904.54;;;15.76;37.00
33795;BME280;51430;52.242;21.118;2024-01-30T11:58:51;101898.77;;;16.37;36.06
33795;BME280;51430;52.242;21.118;2024-01-30T12:01:21;101895.94;;;17.47;34.44
33795;BME280;51430;52.242;21.118;2024-01-30T12:03:50;101900.00;;;17.07;34.36
33795;BME280;51430;52.242;21.118;2024-01-30T12:06:21;101902.25;;;16.19;35.52
33795;BME280;51430;52.242;21.118;2024-01-30T12:08:59;101903.27;;;16.08;35.73
33795;BME280;51430;52.242;21.118;2024-01-30T12:11:27;101898.70;;;15.79;36.13
33795;BME280;51430;52.242;21.118;2024-01-30T12:14:02;101893.95;;;15.87;36.11
33795;BME280;51430;52.242;21.118;2024-01-30T12:16:30;101894.24;;;15.97;36.22
33795;BME280;51430;52.242;21.118;2024-01-30T12:19:00;101890.48;;;16.00;36.10
33795;BME280;51430;52.242;21.118;2024-01-30T12:21:30;101883.41;;;16.79;35.17
33795;BME280;51430;52.242;21.118;2024-01-30T12:23:59;101882.08;;;16.87;34.60
33795;BME280;51430;52.242;21.118;2024-01-30T12:26:27;101882.58;;;16.83;34.66
33795;BME280;51430;52.242;21.118;2024-01-30T12:28:56;101885.89;;;17.10;34.22
33795;BME280;51430;52.242;21.118;2024-01-30T12:31:32;101886.80;;;16.15;35.36
33795;BME280;51430;52.242;21.118;2024-01-30T12:34:00;101886.16;;;16.08;36.05
33795;BME280;51430;52.242;21.118;2024-01-30T12:36:31;101881.51;;;17.47;34.13
33795;BME280;51430;52.242;21.118;2024-01-30T12:39:00;101882.45;;;18.06;33.19
33795;BME280;51430;52.242;21.118;2024-01-30T12:41:29;101883.95;;;18.41;32.49
33795;BME280;51430;52.242;21.118;2024-01-30T12:43:57;101880.58;;;17.69;33.12
33795;BME280;51430;52.242;21.118;2024-01-30T12:46:29;101875.89;;;17.77;33.51
33795;BME280;51430;52.242;21.118;2024-01-30T12:48:57;101876.63;;;18.02;32.96
33795;BME280;51430;52.242;21.118;2024-01-30T12:54:05;101868.84;;;16.44;35.00
33795;BME280;51430;52.242;21.118;2024-01-30T12:56:36;101867.73;;;16.15;35.37
33795;BME280;51430;52.242;21.118;2024-01-30T12:59:47;101863.60;;;16.34;34.99
33795;BME280;51430;52.242;21.118;2024-01-30T13:02:14;101860.54;;;16.03;35.76
33795;BME280;51430;52.242;21.118;2024-01-30T13:04:42;101864.05;;;15.81;35.98
33795;BME280;51430;52.242;21.118;2024-01-30T13:07:14;101860.25;;;15.62;36.34
33795;BME280;51430;52.242;21.118;2024-01-30T13:09:42;101859.64;;;15.75;36.06
33795;BME280;51430;52.242;21.118;2024-01-30T13:18:21;101858.20;;;16.29;35.91
33795;BME280;51430;52.242;21.118;2024-01-30T13:20:51;101865.27;;;17.36;34.69
33795;BME280;51430;52.242;21.118;2024-01-30T13:23:23;101868.48;;;17.88;32.94
33795;BME280;51430;52.242;21.118;2024-01-30T13:25:51;101864.95;;;17.42;33.46
33795;BME280;51430;52.242;21.118;2024-01-30T13:28:22;101864.79;;;16.37;34.73
33795;BME280;51430;52.242;21.118;2024-01-30T13:30:50;101860.73;;;16.78;34.52
33795;BME280;51430;52.242;21.118;2024-01-30T13:33:18;101858.77;;;16.51;34.88
33795;BME280;51430;52.242;21.118;2024-01-30T13:35:48;101858.75;;;16.03;35.80
33795;BME280;51430;52.242;21.118;2024-01-30T13:38:16;101856.67;;;16.67;35.40
33795;BME280;51430;52.242;21.118;2024-01-30T13:40:46;101857.27;;;16.98;34.28
33795;BME280;51430;52.242;21.118;2024-01-30T13:43:14;101862.73;;;16.15;35.25
33795;BME280;51430;52.242;21.118;2024-01-30T13:45:43;101861.88;;;15.92;35.84
33795;BME280;51430;52.242;21.118;2024-01-30T13:48:15;101859.66;;;15.06;36.91
33795;BME280;51430;52.242;21.118;2024-01-30T13:50:45;101855.57;;;14.39;38.19
33795;BME280;51430;52.242;21.118;2024-01-30T13:54:28;101850.60;;;13.82;39.26
33795;BME280;51430;52.242;21.118;2024-01-30T13:59:51;101849.76;;;14.51;38.01
33795;BME280;51430;52.242;21.118;2024-01-30T14:06:25;101848.07;;;14.02;39.49
33795;BME280;51430;52.242;21.118;2024-01-30T14:10:03;101842.92;;;14.82;37.71
33795;BME280;51430;52.242;21.118;2024-01-30T14:16:22;101836.02;;;14.33;38.54
33795;BME280;51430;52.242;21.118;2024-01-30T14:19:51;101829.15;;;14.70;38.75
33795;BME280;51430;52.242;21.118;2024-01-30T14:23:03;101835.52;;;15.78;36.97
33795;BME280;51430;52.242;21.118;2024-01-30T14:32:36;101833.06;;;14.06;39.51
33795;BME280;51430;52.242;21.118;2024-01-30T15:54:28;101797.98;;;7.62;56.65
33795;BME280;51430;52.242;21.118;2024-01-30T16:36:40;101784.28;;;6.63;59.91
33795;BME280;51430;52.242;21.118;2024-01-30T16:39:27;101782.23;;;6.72;59.93
33795;BME280;51430;52.242;21.118;2024-01-30T16:41:57;101782.56;;;6.77;59.66
33795;BME280;51430;52.242;21.118;2024-01-30T16:44:26;101783.06;;;6.73;59.88
33795;BME280;51430;52.242;21.118;2024-01-30T16:46:55;101785.39;;;6.61;60.33
33795;BME280;51430;52.242;21.118;2024-01-30T16:49:23;101780.84;;;6.49;60.82
33795;BME280;51430;52.242;21.118;2024-01-30T16:51:54;101777.31;;;6.45;60.99
33795;BME280;51430;52.242;21.118;2024-01-30T16:54:24;101778.91;;;6.44;61.03
33795;BME280;51430;52.242;21.118;2024-01-30T16:56:52;101779.34;;;6.47;61.10
33795;BME280;51430;52.242;21.118;2024-01-30T16:59:20;101774.28;;;6.29;61.81
33795;BME280;51430;52.242;21.118;2024-01-30T17:01:48;101773.06;;;6.24;61.99
33795;BME280;51430;52.242;21.118;2024-01-30T17:04:19;101770.65;;;6.14;62.52
33795;BME280;51430;52.242;21.118;2024-01-30T17:06:54;101766.31;;;6.15;62.53
33795;BME280;51430;52.242;21.118;2024-01-30T17:09:42;101768.39;;;6.10;62.84
33795;BME280;51430;52.242;21.118;2024-01-30T17:12:13;101768.56;;;5.99;63.08
33795;BME280;51430;52.242;21.118;2024-01-30T17:15:01;101768.33;;;5.91;63.38
33795;BME280;51430;52.242;21.118;2024-01-30T17:17:38;101766.08;;;5.86;63.77
33795;BME280;51430;52.242;21.118;2024-01-30T17:20:07;101761.02;;;5.87;63.75
33795;BME280;51430;52.242;21.118;2024-01-30T17:22:36;101761.08;;;5.79;64.00
33795;BME280;51430;52.242;21.118;2024-01-30T17:25:05;101761.38;;;5.76;64.20
33795;BME280;51430;52.242;21.118;2024-01-30T17:27:33;101756.59;;;5.74;64.11
33795;BME280;51430;52.242;21.118;2024-01-30T17:30:23;101759.36;;;5.64;64.64
33795;BME280;51430;52.242;21.118;2024-01-30T17:32:51;101755.77;;;5.62;64.61
33795;BME280;51430;52.242;21.118;2024-01-30T17:35:20;101754.41;;;5.51;65.02
33795;BME280;51430;52.242;21.118;2024-01-30T17:37:48;101751.23;;;5.48;65.16
33795;BME280;51430;52.242;21.118;2024-01-30T17:40:17;101748.99;;;5.48;65.24
33795;BME280;51430;52.242;21.118;2024-01-30T17:42:46;101753.76;;;5.39;65.47
33795;BME280;51430;52.242;21.118;2024-01-30T17:45:35;101752.39;;;5.33;65.55
33795;BME280;51430;52.242;21.118;2024-01-30T19:14:50;101720.35;;;3.70;72.68
33795;BME280;51430;52.242;21.118;2024-01-30T19:32:15;101706.31;;;3.52;73.52
33795;BME280;51430;52.242;21.118;2024-01-30T19:34:52;101707.38;;;3.65;72.88
33795;BME280;51430;52.242;21.118;2024-01-30T19:37:36;101711.58;;;3.62;73.08
33795;BME280;51430;52.242;21.118;2024-01-30T19:46:34;101714.27;;;3.58;72.91
33795;BME280;51430;52.242;21.118;2024-01-30T19:49:23;101712.68;;;3.52;73.48
33795;BME280;51430;52.242;21.118;2024-01-30T19:51:51;101713.45;;;3.63;72.97
33795;BME280;51430;52.242;21.118;2024-01-30T19:54:19;101707.89;;;3.65;73.06
33795;BME280;51430;52.242;21.118;2024-01-30T19:56:49;101703.35;;;3.68;72.89
33795;BME280;51430;52.242;21.118;2024-01-30T19:59:17;101703.41;;;3.72;72.59
33795;BME280;51430;52.242;21.118;2024-01-30T20:01:47;101695.41;;;3.80;72.29
33795;BME280;51430;52.242;21.118;2024-01-30T20:04:15;101695.73;;;3.81;72.22
33795;BME280;51430;52.242;21.118;2024-01-30T20:06:44;101690.95;;;3.80;72.22
33795;BME280;51430;52.242;21.118;2024-01-30T20:09:12;101692.89;;;3.78;72.42
33795;BME280;51430;52.242;21.118;2024-01-30T20:11:40;101693.96;;;3.89;71.95
33795;BME280;51430;52.242;21.118;2024-01-30T20:14:08;101695.61;;;3.92;71.86
33795;BME280;51430;52.242;21.118;2024-01-30T20:16:40;101692.40;;;3.83;72.16
33795;BME280;51430;52.242;21.118;2024-01-30T20:19:11;101698.02;;;3.74;72.48
33795;BME280;51430;52.242;21.118;2024-01-30T20:21:39;101695.95;;;3.67;72.61
33795;BME280;51430;52.242;21.118;2024-01-30T20:24:08;101691.27;;;3.74;72.60
33795;BME280;51430;52.242;21.118;2024-01-30T20:26:36;101689.23;;;3.66;72.76
33795;BME280;51430;52.242;21.118;2024-01-30T20:29:05;101690.29;;;3.59;73.17
33795;BME280;51430;52.242;21.118;2024-01-30T20:31:33;101692.45;;;3.68;72.83
33795;BME280;51430;52.242;21.118;2024-01-30T20:34:03;101691.32;;;3.59;72.97
33795;BME280;51430;52.242;21.118;2024-01-30T20:36:37;101686.53;;;3.44;73.56
33795;BME280;51430;52.242;21.118;2024-01-30T20:39:06;101688.38;;;3.53;73.29
33795;BME280;51430;52.242;21.118;2024-01-30T20:41:37;101687.62;;;3.42;73.79
33795;BME280;51430;52.242;21.118;2024-01-30T20:44:07;101689.24;;;3.46;73.70
33795;BME280;51430;52.242;21.118;2024-01-30T20:46:36;101691.65;;;3.46;73.63
33795;BME280;51430;52.242;21.118;2024-01-30T20:49:09;101687.34;;;3.53;73.34
33795;BME280;51430;52.242;21.118;2024-01-30T20:51:43;101684.05;;;3.46;73.50
33795;BME280;51430;52.242;21.118;2024-01-30T20:54:11;101680.14;;;3.38;73.93
33795;BME280;51430;52.242;21.118;2024-01-30T20:56:42;101677.50;;;3.33;74.02
33795;BME280;51430;52.242;21.118;2024-01-30T20:59:13;101673.00;;;3.27;74.37
33795;BME280;51430;52.242;21.118;2024-01-30T21:02:03;101674.70;;;3.28;74.62
33795;BME280;51430;52.242;21.118;2024-01-30T21:04:35;101671.77;;;3.35;74.27
33795;BME280;51430;52.242;21.118;2024-01-30T21:07:08;101671.29;;;3.27;74.32
33795;BME280;51430;52.242;21.118;2024-01-30T21:09:51;101669.30;;;3.24;74.74
33795;BME280;51430;52.242;21.118;2024-01-30T21:12:40;101666.42;;;3.15;75.24
33795;BME280;51430;52.242;21.118;2024-01-30T21:15:18;101667.33;;;3.20;75.03
33795;BME280;51430;52.242;21.118;2024-01-30T21:18:00;101671.69;;;3.24;74.97
33795;BME280;51430;52.242;21.118;2024-01-30T21:20:40;101669.54;;;3.21;75.19
33795;BME280;51430;52.242;21.118;2024-01-30T21:23:24;101669.47;;;3.23;74.87
33795;BME280;51430;52.242;21.118;2024-01-30T21:25:59;101667.27;;;3.16;75.31
33795;BME280;51430;52.242;21.118;2024-01-30T21:29:10;101661.83;;;3.26;75.34
33795;BME280;51430;52.242;21.118;2024-01-30T21:31:37;101664.04;;;3.14;75.58
33795;BME280;51430;52.242;21.118;2024-01-30T21:34:04;101665.84;;;3.30;75.20
33795;BME280;51430;52.242;21.118;2024-01-30T21:36:31;101663.74;;;3.38;74.97
33795;BME280;51430;52.242;21.118;2024-01-30T21:39:00;101663.67;;;3.55;74.25
33795;BME280;51430;52.242;21.118;2024-01-30T21:41:27;101662.94;;;3.57;74.06
33795;BME280;51430;52.242;21.118;2024-01-30T21:43:54;101668.31;;;3.55;74.42
33795;BME280;51430;52.242;21.118;2024-01-30T21:46:26;101669.44;;;3.65;73.94
33795;BME280;51430;52.242;21.118;2024-01-30T21:48:53;101670.55;;;3.81;73.29
33795;BME280;51430;52.242;21.118;2024-01-30T21:51:21;101668.88;;;3.73;73.22
33795;BME280;51430;52.242;21.118;2024-01-30T21:53:48;101665.77;;;3.66;73.73
33795;BME280;51430;52.242;21.118;2024-01-30T21:56:18;101667.97;;;3.75;73.41
33795;BME280;51430;52.242;21.118;2024-01-30T21:58:45;101666.97;;;3.80;73.47
33795;BME280;51430;52.242;21.118;2024-01-30T22:01:12;101666.80;;;3.86;73.10
33795;BME280;51430;52.242;21.118;2024-01-30T22:03:39;101668.70;;;3.92;72.94
33795;BME280;51430;52.242;21.118;2024-01-30T22:06:10;101669.55;;;3.93;72.87
33795;BME280;51430;52.242;21.118;2024-01-30T22:08:44;101672.11;;;4.00;72.59
33795;BME280;51430;52.242;21.118;2024-01-30T22:11:27;101672.61;;;3.94;72.71
33795;BME280;51430;52.242;21.118;2024-01-30T22:13:59;101668.86;;;3.92;72.63
33795;BME280;51430;52.242;21.118;2024-01-30T22:16:32;101672.73;;;4.03;72.53
33795;BME280;51430;52.242;21.118;2024-01-30T22:19:03;101671.73;;;4.00;72.36
33795;BME280;51430;52.242;21.118;2024-01-30T22:21:30;101669.79;;;3.90;72.73
33795;BME280;51430;52.242;21.118;2024-01-30T22:23:58;101671.98;;;3.86;72.92
33795;BME280;51430;52.242;21.118;2024-01-30T22:26:24;101671.34;;;4.03;72.39
33795;BME280;51430;52.242;21.118;2024-01-30T22:28:52;101675.59;;;4.11;72.31
33795;BME280;51430;52.242;21.118;2024-01-30T22:31:22;101674.52;;;4.18;71.60
33795;BME280;51430;52.242;21.118;2024-01-30T22:33:49;101671.05;;;4.08;71.88
33795;BME280;51430;52.242;21.118;2024-01-30T22:36:15;101666.30;;;4.04;72.08
33795;BME280;51430;52.242;21.118;2024-01-30T22:38:42;101664.67;;;4.07;72.13
33795;BME280;51430;52.242;21.118;2024-01-30T22:41:09;101667.56;;;4.15;71.48
33795;BME280;51430;52.242;21.118;2024-01-30T22:43:36;101666.44;;;4.18;71.33
33795;BME280;51430;52.242;21.118;2024-01-30T22:46:03;101671.38;;;4.14;71.51
33795;BME280;51430;52.242;21.118;2024-01-30T22:48:30;101665.60;;;4.29;71.23
33795;BME280;51430;52.242;21.118;2024-01-30T22:54:16;101666.94;;;4.24;71.01
33795;BME280;51430;52.242;21.118;2024-01-30T22:56:46;101667.77;;;4.14;71.46
33795;BME280;51430;52.242;21.118;2024-01-30T22:59:15;101661.71;;;4.20;71.20
33795;BME280;51430;52.242;21.118;2024-01-30T23:01:43;101660.54;;;4.31;70.77
33795;BME280;51430;52.242;21.118;2024-01-30T23:04:11;101655.35;;;4.37;70.26
33795;BME280;51430;52.242;21.118;2024-01-30T23:06:40;101650.45;;;4.27;70.74
33795;BME280;51430;52.242;21.118;2024-01-30T23:09:08;101649.67;;;4.25;70.74
33795;BME280;51430;52.242;21.118;2024-01-30T23:11:37;101650.34;;;4.20;70.99
33795;BME280;51430;52.242;21.118;2024-01-30T23:14:05;101645.95;;;4.28;70.72
33795;BME280;51430;52.242;21.118;2024-01-30T23:16:33;101641.90;;;4.37;70.54
33795;BME280;51430;52.242;21.118;2024-01-30T23:19:01;101641.54;;;4.26;70.55
33795;BME280;51430;52.242;21.118;2024-01-30T23:21:29;101636.89;;;4.25;70.72
33795;BME280;51430;52.242;21.118;2024-01-30T23:23:57;101639.66;;;4.19;71.06
33795;BME280;51430;52.242;21.118;2024-01-30T23:26:30;101641.27;;;4.17;71.08
33795;BME280;51430;52.242;21.118;2024-01-30T23:29:13;101637.55;;;4.26;70.56
33795;BME280;51430;52.242;21.118;2024-01-30T23:31:56;101635.70;;;4.19;70.65
33795;BME280;51430;52.242;21.118;2024-01-30T23:34:25;101633.08;;;3.95;71.64
33795;BME280;51430;52.242;21.118;2024-01-30T23:36:53;101633.59;;;3.95;71.87
33795;BME280;51430;52.242;21.118;2024-01-30T23:39:22;101630.30;;;3.96;71.92
33795;BME280;51430;52.242;21.118;2024-01-30T23:41:50;101629.91;;;3.85;72.30
33795;BME280;51430;52.242;21.118;2024-01-30T23:44:18;101631.58;;;3.75;72.76
33795;BME280;51430;52.242;21.118;2024-01-30T23:46:46;101629.23;;;3.73;72.77
33795;BME280;51430;52.242;21.118;2024-01-30T23:49:15;101626.54;;;3.70;72.97
33795;BME280;51430;52.242;21.118;2024-01-30T23:51:43;101630.96;;;3.60;73.43
33795;BME280;51430;52.242;21.118;2024-01-30T23:54:12;101631.70;;;3.58;73.72
33795;BME280;51430;52.242;21.118;2024-01-30T23:56:41;101635.88;;;3.70;73.22
33795;BME280;51430;52.242;21.118;2024-01-30T23:59:10;101632.56;;;3.71;73.27
